createdAt,value
2019-02-10T00:00:44.852Z,38.94
2019-02-10T00:03:13.239Z,39.00
2019-02-10T00:05:41.633Z,38.98
2019-02-10T00:08:10.012Z,38.99
2019-02-10T00:10:38.408Z,38.93
2019-02-10T00:13:28.749Z,39.11
2019-02-10T00:15:59.612Z,39.17
2019-02-10T00:18:27.996Z,39.20
2019-02-10T00:20:56.373Z,39.02
2019-02-10T00:23:24.766Z,39.19
2019-02-10T00:25:53.141Z,39.18
2019-02-10T00:28:21.534Z,39.21
2019-02-10T00:30:50.136Z,39.13
2019-02-10T00:33:18.525Z,39.12
2019-02-10T00:35:46.901Z,39.21
2019-02-10T00:38:15.288Z,39.24
2019-02-10T00:40:43.665Z,39.06
2019-02-10T00:43:12.051Z,39.27
2019-02-10T00:45:40.427Z,39.30
2019-02-10T00:48:08.815Z,39.23
2019-02-10T00:50:37.194Z,39.17
2019-02-10T00:53:05.581Z,39.34
2019-02-10T00:55:33.955Z,39.28
2019-02-10T00:58:02.347Z,39.34
2019-02-10T01:00:30.730Z,39.26
2019-02-10T01:02:59.111Z,39.52
2019-02-10T01:05:27.485Z,39.52
2019-02-10T01:07:55.874Z,39.39
2019-02-10T01:10:25.625Z,39.47
2019-02-10T01:12:54.212Z,39.51
2019-02-10T01:15:22.636Z,39.55
2019-02-10T01:17:50.976Z,39.39
2019-02-10T01:20:19.424Z,39.55
2019-02-10T01:22:47.891Z,39.51
2019-02-10T01:25:16.331Z,39.55
2019-02-10T01:27:44.734Z,39.54
2019-02-10T01:30:16.271Z,39.59
2019-02-10T01:32:44.662Z,39.63
2019-02-10T01:35:13.645Z,39.47
2019-02-10T01:37:42.030Z,39.67
2019-02-10T01:40:11.341Z,39.53
2019-02-10T01:42:39.902Z,39.43
2019-02-10T01:45:10.825Z,39.66
2019-02-10T01:47:39.223Z,39.65
2019-02-10T01:50:09.948Z,39.28
2019-02-10T01:52:38.337Z,39.48
2019-02-10T01:55:09.696Z,39.40
2019-02-10T01:57:38.088Z,39.74
2019-02-10T02:00:10.210Z,39.60
2019-02-10T02:02:38.604Z,39.62
2019-02-10T02:05:08.285Z,39.45
2019-02-10T02:07:36.786Z,39.32
2019-02-10T02:10:07.212Z,39.75
2019-02-10T02:12:35.641Z,39.75
2019-02-10T02:15:04.698Z,39.61
2019-02-10T02:17:33.087Z,39.81
2019-02-10T02:20:01.469Z,39.81
2019-02-10T02:22:29.863Z,39.67
2019-02-10T02:24:58.264Z,39.68
2019-02-10T02:27:26.654Z,39.84
2019-02-10T02:29:55.038Z,39.85
2019-02-10T02:32:23.410Z,39.97
2019-02-10T02:34:51.785Z,39.80
2019-02-10T02:37:20.169Z,39.85
2019-02-10T02:39:48.565Z,39.88
2019-02-10T02:42:17.104Z,39.92
2019-02-10T02:44:45.484Z,39.99
2019-02-10T02:47:13.861Z,39.94
2019-02-10T02:49:42.238Z,39.63
2019-02-10T02:52:10.609Z,40.03
2019-02-10T02:54:38.993Z,39.90
2019-02-10T02:57:07.358Z,39.83
2019-02-10T02:59:35.746Z,40.01
2019-02-10T03:02:04.122Z,40.08
2019-02-10T03:04:32.492Z,40.30
2019-02-10T03:07:00.876Z,40.26
2019-02-10T03:09:29.265Z,40.20
2019-02-10T03:11:57.859Z,40.26
2019-02-10T03:14:26.238Z,40.06
2019-02-10T03:16:54.605Z,40.25
2019-02-10T03:19:22.991Z,40.26
2019-02-10T03:21:51.701Z,40.29
2019-02-10T03:24:20.084Z,40.01
2019-02-10T03:26:48.451Z,40.05
2019-02-10T03:29:16.831Z,40.34
2019-02-10T03:31:45.202Z,40.41
2019-02-10T03:34:13.582Z,40.42
2019-02-10T03:36:41.954Z,40.38
2019-02-10T03:39:10.335Z,40.54
2019-02-10T03:41:38.695Z,40.67
2019-02-10T03:44:07.075Z,39.83
2019-02-10T03:46:35.453Z,40.08
2019-02-10T03:49:03.897Z,40.32
2019-02-10T03:51:32.261Z,40.36
2019-02-10T03:54:00.642Z,40.26
2019-02-10T03:56:29.081Z,40.50
2019-02-10T03:58:57.461Z,40.01
2019-02-10T04:01:25.909Z,40.67
2019-02-10T04:03:54.288Z,40.68
2019-02-10T04:06:22.664Z,40.87
2019-02-10T04:08:52.072Z,40.54
2019-02-10T04:11:20.442Z,40.77
2019-02-10T04:13:48.819Z,40.95
2019-02-10T04:16:17.188Z,40.78
2019-02-10T04:18:45.566Z,40.65
2019-02-10T04:21:13.938Z,40.86
2019-02-10T04:23:42.322Z,40.26
2019-02-10T04:26:10.688Z,41.00
2019-02-10T04:28:39.069Z,40.89
2019-02-10T04:31:07.440Z,40.81
2019-02-10T04:33:35.829Z,41.17
2019-02-10T04:36:04.201Z,41.10
2019-02-10T04:38:32.579Z,41.00
2019-02-10T04:41:00.948Z,40.72
2019-02-10T04:43:29.318Z,41.12
2019-02-10T04:45:57.701Z,41.22
2019-02-10T04:48:26.071Z,41.16
2019-02-10T04:50:54.452Z,41.45
2019-02-10T04:53:22.818Z,41.37
2019-02-10T04:56:14.322Z,40.93
2019-02-10T04:58:42.772Z,41.00
2019-02-10T05:01:11.136Z,41.40
2019-02-10T05:03:39.508Z,41.27
2019-02-10T05:06:07.955Z,41.64
2019-02-10T05:08:36.329Z,41.58
2019-02-10T05:11:04.707Z,41.22
2019-02-10T05:13:33.075Z,41.77
2019-02-10T05:16:01.448Z,41.78
2019-02-10T05:18:29.810Z,41.21
2019-02-10T05:20:58.182Z,41.56
2019-02-10T05:23:26.550Z,40.67
2019-02-10T05:25:54.938Z,41.65
2019-02-10T05:28:23.318Z,41.52
2019-02-10T05:30:52.744Z,41.59
2019-02-10T05:33:21.226Z,41.90
2019-02-10T05:35:49.562Z,41.80
2019-02-10T05:38:17.932Z,41.67
2019-02-10T05:40:46.318Z,41.94
2019-02-10T05:43:14.690Z,41.84
2019-02-10T05:45:43.102Z,41.45
2019-02-10T05:48:11.439Z,42.07
2019-02-10T05:50:39.820Z,41.98
2019-02-10T05:53:08.205Z,41.60
2019-02-10T05:55:36.584Z,42.45
2019-02-10T05:58:04.982Z,42.40
2019-02-10T06:00:33.339Z,42.53
2019-02-10T06:03:01.712Z,42.69
2019-02-10T06:05:30.097Z,42.81
2019-02-10T06:07:58.478Z,43.07
2019-02-10T06:10:26.865Z,43.29
2019-02-10T06:12:55.234Z,43.32
2019-02-10T06:15:23.609Z,43.39
2019-02-10T06:17:51.991Z,43.66
2019-02-10T06:20:21.209Z,43.66
2019-02-10T06:22:49.589Z,43.80
2019-02-10T06:25:17.971Z,43.87
2019-02-10T06:27:46.342Z,43.63
2019-02-10T06:30:14.721Z,43.91
2019-02-10T06:32:43.164Z,43.95
2019-02-10T06:35:11.670Z,44.08
2019-02-10T06:37:40.046Z,44.03
2019-02-10T06:40:09.468Z,44.11
2019-02-10T06:42:37.880Z,44.09
2019-02-10T06:45:09.197Z,44.28
2019-02-10T06:47:37.577Z,44.33
2019-02-10T06:50:07.194Z,44.46
2019-02-10T06:52:35.565Z,44.42
2019-02-10T06:55:05.085Z,44.37
2019-02-10T06:57:33.513Z,44.59
2019-02-10T07:00:06.115Z,44.71
2019-02-10T07:02:41.587Z,44.87
2019-02-10T07:05:11.137Z,45.12
2019-02-10T07:07:39.503Z,45.14
2019-02-10T07:10:08.418Z,45.33
2019-02-10T07:12:50.445Z,45.41
2019-02-10T07:15:55.485Z,45.59
2019-02-10T07:19:00.223Z,45.64
2019-02-10T07:21:31.809Z,45.80
2019-02-10T07:24:05.706Z,45.82
2019-02-10T07:26:53.972Z,45.97
2019-02-10T07:29:41.712Z,46.08
2019-02-10T07:32:11.127Z,46.23
2019-02-10T07:34:58.886Z,46.39
2019-02-10T07:37:32.895Z,46.32
2019-02-10T07:40:12.945Z,46.43
2019-02-10T07:43:17.986Z,46.46
2019-02-10T07:45:55.489Z,46.43
2019-02-10T07:48:29.800Z,46.29
2019-02-10T07:51:10.242Z,46.45
2019-02-10T07:53:47.291Z,46.24
2019-02-10T07:56:30.489Z,46.29
2019-02-10T07:59:24.609Z,46.47
2019-02-10T08:02:04.905Z,46.45
2019-02-10T08:04:59.877Z,46.38
2019-02-10T08:07:31.309Z,46.15
2019-02-10T08:10:14.334Z,46.40
2019-02-10T08:13:00.435Z,46.49
2019-02-10T08:15:40.846Z,46.22
2019-02-10T08:18:23.682Z,46.38
2019-02-10T08:20:55.115Z,46.39
2019-02-10T08:23:38.205Z,46.33
2019-02-10T08:26:30.803Z,46.52
2019-02-10T08:29:22.080Z,46.69
2019-02-10T08:32:17.225Z,47.06
2019-02-10T08:35:00.498Z,47.09
2019-02-10T08:37:46.584Z,47.30
2019-02-10T08:40:20.711Z,47.40
2019-02-10T08:43:03.974Z,47.36
2019-02-10T08:45:44.300Z,47.35
2019-02-10T08:48:48.659Z,47.59
2019-02-10T08:51:39.309Z,47.68
2019-02-10T08:54:08.450Z,47.53
2019-02-10T08:56:56.149Z,47.11
2019-02-10T08:59:24.517Z,47.48
2019-02-10T09:01:54.232Z,47.63
2019-02-10T09:04:22.655Z,47.85
2019-02-10T09:06:51.081Z,47.70
2019-02-10T09:09:19.467Z,47.97
2019-02-10T09:11:48.965Z,47.93
2019-02-10T09:14:18.054Z,47.86
2019-02-10T09:16:46.428Z,47.72
2019-02-10T09:19:14.802Z,47.45
2019-02-10T09:21:43.189Z,47.84
2019-02-10T09:24:11.569Z,47.87
2019-02-10T09:26:39.953Z,47.78
2019-02-10T09:29:08.322Z,47.94
2019-02-10T09:31:36.712Z,48.00
2019-02-10T09:34:05.075Z,47.89
2019-02-10T09:36:33.454Z,48.01
2019-02-10T09:39:01.832Z,48.12
2019-02-10T09:41:30.221Z,48.23
2019-02-10T09:43:58.586Z,48.06
2019-02-10T09:46:27.064Z,47.90
2019-02-10T09:48:55.485Z,48.13
2019-02-10T09:51:23.912Z,48.31
2019-02-10T09:53:52.294Z,48.35
2019-02-10T09:56:20.662Z,48.44
2019-02-10T09:58:49.040Z,48.50
2019-02-10T10:01:17.416Z,48.63
2019-02-10T10:03:45.839Z,47.85
2019-02-10T10:06:14.280Z,48.43
2019-02-10T10:08:42.680Z,48.49
2019-02-10T10:11:11.043Z,48.83
2019-02-10T10:13:39.423Z,48.66
2019-02-10T10:16:07.801Z,48.85
2019-02-10T10:18:36.189Z,48.70
2019-02-10T10:21:04.567Z,48.65
2019-02-10T10:23:32.951Z,48.81
2019-02-10T10:26:01.393Z,49.01
2019-02-10T10:28:29.930Z,49.04
2019-02-10T10:30:58.376Z,49.08
2019-02-10T10:33:26.757Z,49.19
2019-02-10T10:35:55.135Z,49.15
2019-02-10T10:38:23.532Z,49.42
2019-02-10T10:40:53.569Z,48.88
2019-02-10T10:43:22.085Z,49.10
2019-02-10T10:45:50.454Z,49.10
2019-02-10T10:48:19.513Z,49.20
2019-02-10T10:50:47.959Z,49.28
2019-02-10T10:53:16.336Z,49.43
2019-02-10T10:55:44.716Z,49.51
2019-02-10T10:58:13.105Z,49.66
2019-02-10T11:00:41.475Z,49.61
2019-02-10T11:03:09.904Z,49.59
2019-02-10T11:05:38.275Z,48.38
2019-02-10T11:08:06.746Z,49.28
2019-02-10T11:10:35.155Z,49.44
2019-02-10T11:13:03.536Z,49.16
2019-02-10T11:15:31.906Z,49.17
2019-02-10T11:18:00.281Z,49.13
2019-02-10T11:20:28.654Z,49.23
2019-02-10T11:22:57.036Z,49.02
2019-02-10T11:25:25.398Z,49.21
2019-02-10T11:27:53.772Z,49.40
2019-02-10T11:30:22.180Z,49.42
2019-02-10T11:32:50.553Z,49.60
2019-02-10T11:35:20.776Z,49.43
2019-02-10T11:37:51.913Z,49.59
2019-02-10T11:40:20.290Z,49.67
2019-02-10T11:42:48.678Z,50.07
2019-02-10T11:45:17.049Z,50.01
2019-02-10T11:47:45.427Z,50.16
2019-02-10T11:50:14.543Z,50.07
2019-02-10T11:52:42.941Z,49.79
2019-02-10T11:55:12.254Z,49.79
2019-02-10T11:57:40.622Z,49.66
2019-02-10T12:00:12.214Z,49.68
2019-02-10T12:02:40.619Z,49.46
2019-02-10T12:05:10.630Z,49.60
2019-02-10T12:07:39.019Z,49.59
2019-02-10T12:10:12.685Z,49.44
2019-02-10T12:12:41.055Z,49.32
2019-02-10T12:15:12.515Z,49.26
2019-02-10T12:17:40.889Z,49.12
2019-02-10T12:20:11.666Z,49.20
2019-02-10T12:22:40.036Z,49.13
2019-02-10T12:25:10.058Z,48.99
2019-02-10T12:27:38.427Z,48.84
2019-02-10T12:30:12.730Z,48.85
2019-02-10T12:32:41.098Z,48.86
2019-02-10T12:35:11.019Z,48.77
2019-02-10T12:37:39.550Z,48.65
2019-02-10T12:40:09.692Z,48.65
2019-02-10T12:42:38.069Z,48.61
2019-02-10T12:45:08.997Z,48.56
2019-02-10T12:47:37.360Z,48.50
2019-02-10T12:50:14.474Z,48.44
2019-02-10T12:52:42.908Z,48.40
2019-02-10T12:55:12.120Z,48.32
2019-02-10T12:57:40.500Z,48.31
2019-02-10T13:00:14.497Z,48.20
2019-02-10T13:02:42.863Z,48.17
2019-02-10T13:05:11.242Z,48.16
2019-02-10T13:07:39.620Z,48.15
2019-02-10T13:10:13.183Z,48.10
2019-02-10T13:12:41.375Z,47.94
2019-02-10T13:15:10.895Z,48.00
2019-02-10T13:17:39.259Z,47.92
2019-02-10T13:20:13.096Z,47.92
2019-02-10T13:22:41.471Z,47.87
2019-02-10T13:25:11.501Z,47.69
2019-02-10T13:27:40.003Z,47.71
2019-02-10T13:30:16.450Z,47.77
2019-02-10T13:32:44.817Z,47.51
2019-02-10T13:35:13.266Z,47.51
2019-02-10T13:37:41.684Z,47.47
2019-02-10T13:40:22.882Z,47.36
2019-02-10T13:42:51.255Z,47.34
2019-02-10T13:45:19.635Z,47.42
2019-02-10T13:47:48.002Z,47.40
2019-02-10T13:50:18.299Z,47.36
2019-02-10T13:52:46.660Z,47.25
2019-02-10T13:55:15.982Z,47.34
2019-02-10T13:57:44.348Z,47.04
2019-02-10T14:00:20.862Z,47.15
2019-02-10T14:02:49.227Z,47.01
2019-02-10T14:05:17.604Z,46.93
2019-02-10T14:07:45.974Z,46.81
2019-02-10T14:10:24.936Z,46.89
2019-02-10T14:12:46.622Z,47.25
2019-02-10T14:15:17.221Z,46.92
2019-02-10T14:17:45.602Z,47.04
2019-02-10T14:20:18.829Z,47.02
2019-02-10T14:22:47.310Z,46.78
2019-02-10T14:25:15.705Z,46.78
2019-02-10T14:27:44.089Z,47.17
2019-02-10T14:30:16.998Z,47.21
2019-02-10T14:32:45.710Z,47.22
2019-02-10T14:35:14.074Z,47.26
2019-02-10T14:37:42.477Z,47.36
2019-02-10T14:40:11.009Z,47.43
2019-02-10T14:42:39.380Z,47.50
2019-02-10T14:45:13.063Z,47.62
2019-02-10T14:47:41.370Z,47.62
2019-02-10T14:50:12.486Z,47.73
2019-02-10T14:52:40.875Z,48.01
2019-02-10T14:55:09.265Z,47.97
2019-02-10T14:57:37.646Z,48.11
2019-02-10T15:00:09.312Z,48.33
2019-02-10T15:02:37.687Z,48.20
2019-02-10T15:05:06.713Z,48.25
2019-02-10T15:07:35.080Z,48.02
2019-02-10T15:10:03.989Z,48.20
2019-02-10T15:12:32.414Z,48.12
2019-02-10T15:15:00.806Z,48.14
2019-02-10T15:17:29.846Z,48.18
2019-02-10T15:19:58.239Z,48.10
2019-02-10T15:22:27.685Z,47.95
2019-02-10T15:24:56.074Z,47.82
2019-02-10T15:27:24.444Z,47.79
2019-02-10T15:29:52.823Z,48.04
2019-02-10T15:32:21.192Z,47.98
2019-02-10T15:34:49.575Z,48.06
2019-02-10T15:37:17.967Z,48.11
2019-02-10T15:39:47.238Z,48.02
2019-02-10T15:42:15.620Z,48.20
2019-02-10T15:44:45.659Z,48.37
2019-02-10T15:47:14.185Z,48.19
2019-02-10T15:49:42.563Z,48.45
2019-02-10T15:52:12.914Z,48.40
2019-02-10T15:54:41.312Z,48.26
2019-02-10T15:57:09.716Z,48.46
2019-02-10T15:59:39.076Z,48.35
2019-02-10T16:02:07.523Z,48.39
2019-02-10T16:04:35.970Z,48.28
2019-02-10T16:07:04.434Z,48.36
2019-02-10T16:09:32.806Z,48.49
2019-02-10T16:12:01.189Z,48.44
2019-02-10T16:14:31.102Z,48.63
2019-02-10T16:16:59.656Z,48.56
2019-02-10T16:19:28.331Z,48.50
2019-02-10T16:21:56.701Z,48.65
2019-02-10T16:24:25.092Z,48.52
2019-02-10T16:26:53.848Z,48.45
2019-02-10T16:29:22.238Z,48.37
2019-02-10T16:31:50.626Z,48.61
2019-02-10T16:34:19.007Z,48.50
2019-02-10T16:36:47.389Z,48.51
2019-02-10T16:39:15.818Z,48.76
2019-02-10T16:41:44.203Z,48.86
2019-02-10T16:44:12.576Z,49.19
2019-02-10T16:46:40.967Z,49.31
2019-02-10T16:49:09.339Z,49.31
2019-02-10T16:51:37.720Z,49.43
2019-02-10T16:54:06.184Z,50.21
2019-02-10T16:56:34.569Z,51.48
2019-02-10T16:59:02.942Z,52.49
2019-02-10T17:01:31.318Z,54.57
2019-02-10T17:04:00.050Z,54.82
2019-02-10T17:06:28.429Z,51.56
2019-02-10T17:08:56.974Z,52.27
2019-02-10T17:11:25.354Z,53.13
2019-02-10T17:13:53.845Z,53.22
2019-02-10T17:16:22.219Z,52.07
2019-02-10T17:18:50.679Z,51.75
2019-02-10T17:21:19.174Z,50.88
2019-02-10T17:23:47.657Z,50.69
2019-02-10T17:26:16.124Z,50.31
2019-02-10T17:28:44.501Z,50.32
2019-02-10T17:31:13.320Z,49.66
2019-02-10T17:33:41.709Z,49.64
2019-02-10T17:36:10.071Z,49.82
2019-02-10T17:38:38.458Z,49.90
2019-02-10T17:41:13.053Z,50.19
2019-02-10T17:43:41.788Z,50.06
2019-02-10T17:46:10.199Z,43.59
2019-02-10T17:48:38.537Z,42.63
2019-02-10T17:51:06.905Z,42.10
2019-02-10T17:53:35.301Z,41.96
2019-02-10T17:56:03.681Z,47.57
2019-02-10T17:58:32.062Z,47.48
2019-02-10T18:01:00.429Z,47.49
2019-02-10T18:03:28.824Z,47.10
2019-02-10T18:05:57.223Z,45.22
2019-02-10T18:08:25.614Z,47.25
2019-02-10T18:10:54.156Z,47.49
2019-02-10T18:13:22.527Z,47.49
2019-02-10T18:15:52.554Z,47.52
2019-02-10T18:18:31.563Z,47.57
2019-02-10T18:21:07.202Z,47.99
2019-02-10T18:23:49.250Z,47.58
2019-02-10T18:26:30.827Z,47.99
2019-02-10T18:29:10.030Z,48.39
2019-02-10T18:31:42.716Z,48.26
2019-02-10T18:34:12.735Z,48.96
2019-02-10T18:36:48.600Z,49.17
2019-02-10T18:39:34.633Z,49.22
2019-02-10T18:42:04.651Z,48.84
2019-02-10T18:44:34.674Z,48.63
2019-02-10T18:47:04.762Z,49.07
2019-02-10T18:49:40.534Z,48.59
2019-02-10T18:52:10.617Z,49.02
2019-02-10T18:54:58.883Z,49.93
2019-02-10T18:57:38.550Z,49.99
2019-02-10T19:00:13.582Z,50.12
2019-02-10T19:02:46.506Z,50.68
2019-02-10T19:05:32.753Z,51.38
2019-02-10T19:08:02.796Z,51.78
2019-02-10T19:10:32.831Z,52.14
2019-02-10T19:13:02.836Z,53.49
2019-02-10T19:15:38.341Z,54.39
2019-02-10T19:18:10.823Z,55.53
2019-02-10T19:20:46.511Z,56.38
2019-02-10T19:23:16.538Z,55.44
2019-02-10T19:25:49.509Z,56.08
2019-02-10T19:28:21.981Z,56.44
2019-02-10T19:30:54.890Z,56.74
2019-02-10T19:33:43.221Z,56.47
2019-02-10T19:36:29.137Z,56.64
2019-02-10T19:39:05.050Z,55.33
2019-02-10T19:41:38.007Z,56.07
2019-02-10T19:44:24.457Z,56.12
2019-02-10T19:46:54.474Z,55.18
2019-02-10T19:49:42.511Z,55.88
2019-02-10T19:52:12.524Z,55.66
2019-02-10T19:54:42.561Z,55.27
2019-02-10T19:57:18.340Z,55.46
2019-02-10T20:00:06.733Z,55.08
2019-02-10T20:02:36.755Z,54.89
2019-02-10T20:05:24.762Z,54.07
2019-02-10T20:08:11.278Z,54.47
2019-02-10T20:10:53.415Z,54.30
2019-02-10T20:13:25.835Z,54.22
2019-02-10T20:15:55.878Z,54.20
2019-02-10T20:18:28.434Z,54.30
2019-02-10T20:21:01.457Z,54.15
2019-02-10T20:23:36.985Z,53.41
2019-02-10T20:26:12.768Z,53.86
2019-02-10T20:28:58.770Z,53.83
2019-02-10T20:31:28.787Z,54.00
2019-02-10T20:34:01.572Z,53.31
2019-02-10T20:36:31.667Z,53.59
2019-02-10T20:39:10.400Z,53.83
2019-02-10T20:41:49.489Z,53.57
2019-02-10T20:44:22.514Z,52.67
2019-02-10T20:46:55.623Z,53.40
2019-02-10T20:49:34.332Z,52.75
2019-02-10T20:52:07.550Z,53.14
2019-02-10T20:54:52.832Z,52.45
2019-02-10T20:57:25.654Z,53.14
2019-02-10T21:00:04.235Z,53.12
2019-02-10T21:02:34.257Z,52.82
2019-02-10T21:05:04.281Z,53.14
2019-02-10T21:07:36.733Z,51.33
2019-02-10T21:10:10.961Z,52.58
2019-02-10T21:12:44.135Z,50.62
2019-02-10T21:15:17.001Z,53.10
2019-02-10T21:17:56.828Z,52.60
2019-02-10T21:20:26.901Z,52.87
2019-02-10T21:22:59.851Z,52.22
2019-02-10T21:25:35.582Z,52.22
2019-02-10T21:28:05.598Z,52.30
2019-02-10T21:30:48.109Z,52.60
2019-02-10T21:33:30.253Z,52.26
2019-02-10T21:36:02.925Z,52.15
2019-02-10T21:38:38.350Z,52.27
2019-02-10T21:41:10.775Z,51.88
2019-02-10T21:43:52.469Z,52.00
2019-02-10T21:46:22.501Z,52.29
2019-02-10T21:48:52.565Z,51.80
2019-02-10T21:51:22.671Z,51.85
2019-02-10T21:53:51.050Z,51.83
2019-02-10T21:56:19.502Z,51.65
2019-02-10T21:58:47.909Z,51.38
2019-02-10T22:01:16.512Z,51.43
2019-02-10T22:03:46.924Z,51.60
2019-02-10T22:06:16.589Z,51.13
2019-02-10T22:08:45.210Z,51.29
2019-02-10T22:11:13.595Z,51.00
2019-02-10T22:13:41.962Z,51.73
2019-02-10T22:16:10.343Z,51.53
2019-02-10T22:18:38.833Z,51.55
2019-02-10T22:21:07.205Z,51.45
2019-02-10T22:23:35.573Z,51.34
2019-02-10T22:26:04.023Z,50.84
2019-02-10T22:28:32.396Z,51.18
2019-02-10T22:31:00.784Z,50.71
2019-02-10T22:33:29.146Z,50.64
2019-02-10T22:35:57.528Z,50.49
2019-02-10T22:38:25.901Z,50.65
2019-02-10T22:40:54.284Z,50.68
2019-02-10T22:43:22.655Z,51.03
2019-02-10T22:45:51.034Z,50.23
2019-02-10T22:48:19.405Z,50.72
2019-02-10T22:50:47.784Z,50.64
2019-02-10T22:53:16.932Z,50.65
2019-02-10T22:55:45.309Z,50.46
2019-02-10T22:58:13.678Z,50.31
2019-02-10T23:00:48.971Z,50.85
2019-02-10T23:03:18.039Z,50.58
2019-02-10T23:05:47.015Z,49.72
2019-02-10T23:08:15.383Z,50.45
2019-02-10T23:10:44.729Z,50.06
2019-02-10T23:13:13.091Z,50.23
2019-02-10T23:15:41.475Z,50.61
2019-02-10T23:18:09.837Z,50.06
2019-02-10T23:20:38.214Z,50.41
2019-02-10T23:23:06.582Z,50.38
2019-02-10T23:25:34.963Z,49.98
2019-02-10T23:28:03.339Z,50.04
2019-02-10T23:30:31.712Z,49.75
2019-02-10T23:33:00.093Z,50.07
2019-02-10T23:35:28.463Z,49.77
2019-02-10T23:37:56.853Z,49.77
2019-02-10T23:40:25.217Z,50.04
2019-02-10T23:43:01.711Z,49.77
2019-02-10T23:45:23.691Z,49.87
2019-02-10T23:47:52.069Z,49.95
2019-02-10T23:50:20.440Z,49.72
2019-02-10T23:52:48.833Z,49.74
2019-02-10T23:55:17.461Z,49.49
2019-02-10T23:57:45.857Z,49.50
